sensor_id;sensor_type;location;lat;lon;timestamp;pressure;altitude;pressure_sealevel;temperature;humidity
68141;BME280;54941;52.220;104.306;2023-03-14T00:01:23;97222.84;;;-6.53;76.69
68141;BME280;54941;52.220;104.306;2023-03-14T00:03:50;97219.56;;;-6.37;76.51
68141;BME280;54941;52.220;104.306;2023-03-14T00:06:17;97210.06;;;-6.17;76.02
68141;BME280;54941;52.220;104.306;2023-03-14T00:08:44;97205.41;;;-6.23;76.04
68141;BME280;54941;52.220;104.306;2023-03-14T00:11:12;97206.84;;;-6.19;75.57
68141;BME280;54941;52.220;104.306;2023-03-14T00:13:40;97209.53;;;-6.22;75.66
68141;BME280;54941;52.220;104.306;2023-03-14T00:16:09;97216.13;;;-5.89;74.67
68141;BME280;54941;52.220;104.306;2023-03-14T00:18:36;97213.81;;;-6.08;74.53
68141;BME280;54941;52.220;104.306;2023-03-14T00:21:04;97212.59;;;-6.32;75.78
68141;BME280;54941;52.220;104.306;2023-03-14T00:23:34;97210.56;;;-6.10;75.44
68141;BME280;54941;52.220;104.306;2023-03-14T00:26:02;97207.50;;;-6.15;76.19
68141;BME280;54941;52.220;104.306;2023-03-14T00:28:28;97209.84;;;-6.12;76.50
68141;BME280;54941;52.220;104.306;2023-03-14T00:31:01;97203.97;;;-5.52;74.88
68141;BME280;54941;52.220;104.306;2023-03-14T00:33:30;97209.47;;;-5.31;73.52
68141;BME280;54941;52.220;104.306;2023-03-14T00:35:58;97204.41;;;-4.87;71.92
68141;BME280;54941;52.220;104.306;2023-03-14T00:38:25;97209.16;;;-5.11;73.02
68141;BME280;54941;52.220;104.306;2023-03-14T00:40:52;97215.25;;;-5.01;72.83
68141;BME280;54941;52.220;104.306;2023-03-14T00:43:19;97220.25;;;-5.29;73.45
68141;BME280;54941;52.220;104.306;2023-03-14T00:45:46;97215.25;;;-5.15;73.27
68141;BME280;54941;52.220;104.306;2023-03-14T00:48:14;97207.44;;;-4.54;72.56
68141;BME280;54941;52.220;104.306;2023-03-14T00:50:40;97216.19;;;-4.73;71.33
68141;BME280;54941;52.220;104.306;2023-03-14T00:53:07;97212.75;;;-4.58;71.59
68141;BME280;54941;52.220;104.306;2023-03-14T00:55:36;97210.22;;;-4.03;69.41
68141;BME280;54941;52.220;104.306;2023-03-14T00:58:03;97210.97;;;-4.15;69.11
68141;BME280;54941;52.220;104.306;2023-03-14T01:00:29;97210.84;;;-4.14;69.56
68141;BME280;54941;52.220;104.306;2023-03-14T01:02:56;97212.31;;;-3.83;68.26
68141;BME280;54941;52.220;104.306;2023-03-14T01:05:24;97214.81;;;-3.44;67.17
68141;BME280;54941;52.220;104.306;2023-03-14T01:07:50;97211.53;;;-3.98;68.63
68141;BME280;54941;52.220;104.306;2023-03-14T01:10:17;97212.13;;;-4.21;68.31
68141;BME280;54941;52.220;104.306;2023-03-14T01:12:43;97218.69;;;-3.77;66.89
68141;BME280;54941;52.220;104.306;2023-03-14T01:15:10;97224.16;;;-2.93;65.21
68141;BME280;54941;52.220;104.306;2023-03-14T01:17:37;97220.03;;;-3.59;65.22
68141;BME280;54941;52.220;104.306;2023-03-14T01:20:04;97227.97;;;-3.65;65.61
68141;BME280;54941;52.220;104.306;2023-03-14T01:22:33;97241.72;;;-3.05;64.78
68141;BME280;54941;52.220;104.306;2023-03-14T01:24:59;97246.34;;;-2.99;64.72
68141;BME280;54941;52.220;104.306;2023-03-14T01:27:25;97243.13;;;-3.01;63.77
68141;BME280;54941;52.220;104.306;2023-03-14T01:29:52;97253.91;;;-2.73;63.30
68141;BME280;54941;52.220;104.306;2023-03-14T01:32:18;97249.56;;;-3.22;63.76
68141;BME280;54941;52.220;104.306;2023-03-14T01:34:45;97249.28;;;-2.79;62.62
68141;BME280;54941;52.220;104.306;2023-03-14T01:37:18;97258.25;;;-2.88;62.40
68141;BME280;54941;52.220;104.306;2023-03-14T01:39:48;97256.34;;;-2.72;63.26
68141;BME280;54941;52.220;104.306;2023-03-14T01:42:15;97261.25;;;-3.08;64.17
68141;BME280;54941;52.220;104.306;2023-03-14T01:44:49;97262.78;;;-2.42;62.59
68141;BME280;54941;52.220;104.306;2023-03-14T01:47:15;97261.50;;;-2.86;63.75
68141;BME280;54941;52.220;104.306;2023-03-14T01:49:42;97259.16;;;-3.02;63.50
68141;BME280;54941;52.220;104.306;2023-03-14T01:52:11;97265.31;;;-2.93;63.39
68141;BME280;54941;52.220;104.306;2023-03-14T01:54:41;97262.34;;;-2.11;61.40
68141;BME280;54941;52.220;104.306;2023-03-14T01:57:12;97274.69;;;-3.08;63.82
68141;BME280;54941;52.220;104.306;2023-03-14T01:59:42;97262.47;;;-2.51;63.92
68141;BME280;54941;52.220;104.306;2023-03-14T02:02:10;97266.03;;;-2.53;62.68
68141;BME280;54941;52.220;104.306;2023-03-14T02:04:38;97262.81;;;-2.06;62.66
68141;BME280;54941;52.220;104.306;2023-03-14T02:07:09;97262.09;;;-2.70;64.21
68141;BME280;54941;52.220;104.306;2023-03-14T02:09:39;97264.59;;;-3.08;67.04
68141;BME280;54941;52.220;104.306;2023-03-14T02:12:06;97264.00;;;-2.73;66.80
68141;BME280;54941;52.220;104.306;2023-03-14T02:14:36;97264.06;;;-3.13;67.05
68141;BME280;54941;52.220;104.306;2023-03-14T02:17:04;97258.22;;;-3.13;66.99
68141;BME280;54941;52.220;104.306;2023-03-14T02:19:39;97259.06;;;-2.87;65.85
68141;BME280;54941;52.220;104.306;2023-03-14T02:22:12;97258.53;;;-2.55;65.77
68141;BME280;54941;52.220;104.306;2023-03-14T02:24:44;97261.59;;;-2.75;67.17
68141;BME280;54941;52.220;104.306;2023-03-14T02:27:15;97260.84;;;-3.15;67.59
68141;BME280;54941;52.220;104.306;2023-03-14T02:29:49;97258.09;;;-3.24;68.26
68141;BME280;54941;52.220;104.306;2023-03-14T02:32:17;97254.16;;;-3.28;68.02
68141;BME280;54941;52.220;104.306;2023-03-14T02:34:50;97254.94;;;-2.88;66.73
68141;BME280;54941;52.220;104.306;2023-03-14T02:37:19;97248.53;;;-2.31;66.24
68141;BME280;54941;52.220;104.306;2023-03-14T02:39:47;97242.53;;;-2.05;65.01
68141;BME280;54941;52.220;104.306;2023-03-14T02:42:16;97240.81;;;-0.65;59.94
68141;BME280;54941;52.220;104.306;2023-03-14T02:44:53;97243.06;;;0.16;56.52
68141;BME280;54941;52.220;104.306;2023-03-14T02:47:29;97239.03;;;0.14;58.42
68141;BME280;54941;52.220;104.306;2023-03-14T02:50:02;97239.31;;;-0.12;57.44
68141;BME280;54941;52.220;104.306;2023-03-14T02:52:29;97240.91;;;0.96;51.93
68141;BME280;54941;52.220;104.306;2023-03-14T02:54:56;97235.88;;;0.64;52.46
68141;BME280;54941;52.220;104.306;2023-03-14T02:57:24;97239.78;;;-0.40;55.08
68141;BME280;54941;52.220;104.306;2023-03-14T02:59:50;97241.16;;;-0.25;56.51
68141;BME280;54941;52.220;104.306;2023-03-14T03:02:17;97242.31;;;-0.29;55.75
68141;BME280;54941;52.220;104.306;2023-03-14T03:04:43;97246.06;;;0.85;52.62
68141;BME280;54941;52.220;104.306;2023-03-14T03:07:10;97229.78;;;0.56;53.86
68141;BME280;54941;52.220;104.306;2023-03-14T03:09:38;97228.06;;;-0.30;55.36
68141;BME280;54941;52.220;104.306;2023-03-14T03:12:04;97232.41;;;0.65;54.07
68141;BME280;54941;52.220;104.306;2023-03-14T03:14:32;97238.16;;;0.04;54.70
68141;BME280;54941;52.220;104.306;2023-03-14T03:16:58;97227.94;;;-0.51;57.62
68141;BME280;54941;52.220;104.306;2023-03-14T03:19:30;97229.75;;;-0.97;60.10
68141;BME280;54941;52.220;104.306;2023-03-14T03:21:56;97228.28;;;-1.58;62.60
68141;BME280;54941;52.220;104.306;2023-03-14T03:24:23;97226.97;;;-0.94;61.42
68141;BME280;54941;52.220;104.306;2023-03-14T03:26:49;97235.59;;;-1.08;62.92
68141;BME280;54941;52.220;104.306;2023-03-14T03:29:16;97223.19;;;-0.22;60.67
68141;BME280;54941;52.220;104.306;2023-03-14T03:31:43;97227.53;;;-1.13;62.44
68141;BME280;54941;52.220;104.306;2023-03-14T03:34:10;97224.56;;;-1.65;64.36
68141;BME280;54941;52.220;104.306;2023-03-14T03:36:36;97225.56;;;-1.09;63.03
68141;BME280;54941;52.220;104.306;2023-03-14T03:39:03;97219.84;;;-1.70;65.38
68141;BME280;54941;52.220;104.306;2023-03-14T03:41:30;97219.25;;;-1.50;64.94
68141;BME280;54941;52.220;104.306;2023-03-14T03:43:56;97216.31;;;-0.75;63.63
68141;BME280;54941;52.220;104.306;2023-03-14T03:46:23;97216.50;;;-1.12;65.43
68141;BME280;54941;52.220;104.306;2023-03-14T03:48:54;97218.38;;;-0.69;63.23
68141;BME280;54941;52.220;104.306;2023-03-14T03:51:20;97211.66;;;-1.50;65.59
68141;BME280;54941;52.220;104.306;2023-03-14T03:53:47;97214.59;;;-1.90;67.16
68141;BME280;54941;52.220;104.306;2023-03-14T03:56:13;97218.28;;;-1.25;66.39
68141;BME280;54941;52.220;104.306;2023-03-14T03:58:39;97214.91;;;-1.02;66.35
68141;BME280;54941;52.220;104.306;2023-03-14T04:01:06;97216.59;;;-0.02;62.32
68141;BME280;54941;52.220;104.306;2023-03-14T04:03:33;97212.97;;;-0.20;62.46
68141;BME280;54941;52.220;104.306;2023-03-14T04:06:02;97220.56;;;-0.20;62.11
68141;BME280;54941;52.220;104.306;2023-03-14T04:08:28;97206.44;;;-0.56;63.21
68141;BME280;54941;52.220;104.306;2023-03-14T04:10:56;97209.69;;;-1.22;66.30
68141;BME280;54941;52.220;104.306;2023-03-14T04:13:23;97213.00;;;-1.22;64.05
68141;BME280;54941;52.220;104.306;2023-03-14T04:15:49;97201.31;;;-1.47;66.34
68141;BME280;54941;52.220;104.306;2023-03-14T04:18:15;97204.22;;;-0.38;63.82
68141;BME280;54941;52.220;104.306;2023-03-14T04:20:42;97207.06;;;-0.99;64.88
68141;BME280;54941;52.220;104.306;2023-03-14T04:23:10;97210.91;;;-0.48;63.15
68141;BME280;54941;52.220;104.306;2023-03-14T04:25:37;97198.28;;;0.69;60.34
68141;BME280;54941;52.220;104.306;2023-03-14T04:28:03;97203.09;;;0.09;60.88
68141;BME280;54941;52.220;104.306;2023-03-14T04:30:30;97201.38;;;0.09;61.27
68141;BME280;54941;52.220;104.306;2023-03-14T04:32:56;97201.91;;;-1.43;65.16
68141;BME280;54941;52.220;104.306;2023-03-14T04:35:22;97199.97;;;-0.93;65.40
68141;BME280;54941;52.220;104.306;2023-03-14T04:37:49;97201.47;;;0.51;63.27
68141;BME280;54941;52.220;104.306;2023-03-14T04:40:17;97194.72;;;0.61;61.06
68141;BME280;54941;52.220;104.306;2023-03-14T04:42:43;97187.53;;;0.13;60.07
68141;BME280;54941;52.220;104.306;2023-03-14T04:45:10;97185.72;;;0.04;61.94
68141;BME280;54941;52.220;104.306;2023-03-14T04:47:37;97190.06;;;0.45;60.49
68141;BME280;54941;52.220;104.306;2023-03-14T04:50:06;97186.31;;;1.62;57.18
68141;BME280;54941;52.220;104.306;2023-03-14T04:52:33;97186.59;;;-0.29;60.02
68141;BME280;54941;52.220;104.306;2023-03-14T04:54:59;97188.47;;;0.12;60.28
68141;BME280;54941;52.220;104.306;2023-03-14T04:57:27;97186.97;;;0.41;59.91
68141;BME280;54941;52.220;104.306;2023-03-14T04:59:53;97178.38;;;1.56;56.92
68141;BME280;54941;52.220;104.306;2023-03-14T05:02:20;97182.88;;;1.33;55.75
68141;BME280;54941;52.220;104.306;2023-03-14T05:04:46;97172.38;;;-0.63;59.36
68141;BME280;54941;52.220;104.306;2023-03-14T05:07:13;97170.69;;;-0.09;55.79
68141;BME280;54941;52.220;104.306;2023-03-14T05:09:39;97167.06;;;-1.05;60.04
68141;BME280;54941;52.220;104.306;2023-03-14T05:12:06;97163.50;;;-0.58;59.66
68141;BME280;54941;52.220;104.306;2023-03-14T05:14:34;97169.22;;;-1.33;61.01
68141;BME280;54941;52.220;104.306;2023-03-14T05:17:00;97155.22;;;-0.48;59.08
68141;BME280;54941;52.220;104.306;2023-03-14T05:19:26;97167.31;;;-0.85;58.60
68141;BME280;54941;52.220;104.306;2023-03-14T05:21:53;97165.19;;;0.18;57.26
68141;BME280;54941;52.220;104.306;2023-03-14T05:24:19;97161.31;;;0.97;56.09
68141;BME280;54941;52.220;104.306;2023-03-14T05:26:45;97150.56;;;2.32;52.25
68141;BME280;54941;52.220;104.306;2023-03-14T05:29:12;97155.81;;;0.92;54.29
68141;BME280;54941;52.220;104.306;2023-03-14T05:31:39;97151.53;;;2.97;47.51
68141;BME280;54941;52.220;104.306;2023-03-14T05:34:06;97146.63;;;1.01;51.24
68141;BME280;54941;52.220;104.306;2023-03-14T05:36:32;97135.03;;;-0.28;53.58
68141;BME280;54941;52.220;104.306;2023-03-14T05:38:59;97139.91;;;-0.47;55.51
68141;BME280;54941;52.220;104.306;2023-03-14T05:41:25;97133.91;;;-0.35;55.73
68141;BME280;54941;52.220;104.306;2023-03-14T05:43:51;97133.72;;;-0.76;56.58
68141;BME280;54941;52.220;104.306;2023-03-14T05:46:18;97129.28;;;-1.52;58.95
68141;BME280;54941;52.220;104.306;2023-03-14T05:48:45;97135.16;;;-1.52;60.49
68141;BME280;54941;52.220;104.306;2023-03-14T05:51:12;97138.94;;;-1.81;61.17
68141;BME280;54941;52.220;104.306;2023-03-14T05:53:38;97140.25;;;-1.75;62.29
68141;BME280;54941;52.220;104.306;2023-03-14T05:56:05;97128.50;;;-2.71;69.03
68141;BME280;54941;52.220;104.306;2023-03-14T05:58:32;97140.66;;;-3.02;74.88
68141;BME280;54941;52.220;104.306;2023-03-14T06:01:01;97132.84;;;-3.87;80.12
68141;BME280;54941;52.220;104.306;2023-03-14T06:03:28;97138.41;;;-3.69;81.71
68141;BME280;54941;52.220;104.306;2023-03-14T06:05:56;97135.84;;;-3.95;83.57
68141;BME280;54941;52.220;104.306;2023-03-14T06:08:23;97129.91;;;-3.94;86.64
68141;BME280;54941;52.220;104.306;2023-03-14T06:10:49;97134.06;;;-4.19;87.59
68141;BME280;54941;52.220;104.306;2023-03-14T06:13:17;97142.44;;;-4.60;89.78
68141;BME280;54941;52.220;104.306;2023-03-14T06:15:43;97136.22;;;-4.54;91.54
68141;BME280;54941;52.220;104.306;2023-03-14T06:18:10;97138.03;;;-4.03;93.09
68141;BME280;54941;52.220;104.306;2023-03-14T06:20:36;97137.28;;;-3.78;91.52
68141;BME280;54941;52.220;104.306;2023-03-14T06:23:04;97125.72;;;-3.17;91.01
68141;BME280;54941;52.220;104.306;2023-03-14T06:25:31;97126.75;;;-3.20;86.64
68141;BME280;54941;52.220;104.306;2023-03-14T06:27:57;97122.13;;;-2.64;83.92
68141;BME280;54941;52.220;104.306;2023-03-14T06:30:23;97120.41;;;-3.00;82.79
68141;BME280;54941;52.220;104.306;2023-03-14T06:32:50;97126.59;;;-2.80;80.32
68141;BME280;54941;52.220;104.306;2023-03-14T06:35:16;97117.69;;;-1.89;78.64
68141;BME280;54941;52.220;104.306;2023-03-14T06:37:43;97115.06;;;-1.42;75.73
68141;BME280;54941;52.220;104.306;2023-03-14T06:40:12;97112.22;;;-0.71;72.51
68141;BME280;54941;52.220;104.306;2023-03-14T06:42:38;97102.91;;;-0.70;72.16
68141;BME280;54941;52.220;104.306;2023-03-14T06:45:06;97105.09;;;-0.99;69.75
68141;BME280;54941;52.220;104.306;2023-03-14T06:47:33;97107.97;;;-1.37;69.22
68141;BME280;54941;52.220;104.306;2023-03-14T06:49:59;97095.44;;;-0.83;67.73
68141;BME280;54941;52.220;104.306;2023-03-14T06:52:26;97099.56;;;-1.37;68.15
68141;BME280;54941;52.220;104.306;2023-03-14T06:54:52;97088.63;;;-0.28;66.81
68141;BME280;54941;52.220;104.306;2023-03-14T06:57:20;97099.69;;;-1.17;67.05
68141;BME280;54941;52.220;104.306;2023-03-14T06:59:46;97096.34;;;-1.06;68.91
68141;BME280;54941;52.220;104.306;2023-03-14T07:02:13;97091.63;;;-0.23;66.34
68141;BME280;54941;52.220;104.306;2023-03-14T07:04:42;97083.38;;;-1.02;64.31
68141;BME280;54941;52.220;104.306;2023-03-14T07:07:08;97077.72;;;-1.05;66.63
68141;BME280;54941;52.220;104.306;2023-03-14T07:09:35;97087.81;;;-0.72;66.33
68141;BME280;54941;52.220;104.306;2023-03-14T07:12:01;97086.31;;;-0.63;65.55
68141;BME280;54941;52.220;104.306;2023-03-14T07:14:30;97092.00;;;-0.39;64.85
68141;BME280;54941;52.220;104.306;2023-03-14T07:16:56;97083.56;;;-0.28;62.53
68141;BME280;54941;52.220;104.306;2023-03-14T07:19:23;97078.56;;;0.34;62.51
68141;BME280;54941;52.220;104.306;2023-03-14T07:21:49;97088.66;;;-0.82;63.66
68141;BME280;54941;52.220;104.306;2023-03-14T07:24:16;97094.94;;;-2.01;69.48
68141;BME280;54941;52.220;104.306;2023-03-14T07:26:42;97091.47;;;-1.65;72.22
68141;BME280;54941;52.220;104.306;2023-03-14T07:29:08;97092.94;;;-2.32;73.53
68141;BME280;54941;52.220;104.306;2023-03-14T07:31:36;97097.41;;;-2.35;76.87
68141;BME280;54941;52.220;104.306;2023-03-14T07:34:03;97097.41;;;-3.08;77.97
68141;BME280;54941;52.220;104.306;2023-03-14T07:36:29;97085.84;;;-2.74;78.56
68141;BME280;54941;52.220;104.306;2023-03-14T07:38:55;97093.53;;;-2.52;77.07
68141;BME280;54941;52.220;104.306;2023-03-14T07:41:22;97092.97;;;-2.56;77.46
68141;BME280;54941;52.220;104.306;2023-03-14T07:43:48;97092.97;;;-2.56;76.92
68141;BME280;54941;52.220;104.306;2023-03-14T07:46:15;97090.28;;;-2.78;77.13
68141;BME280;54941;52.220;104.306;2023-03-14T07:48:43;97085.97;;;-2.28;77.22
68141;BME280;54941;52.220;104.306;2023-03-14T07:51:09;97095.31;;;-2.41;76.32
68141;BME280;54941;52.220;104.306;2023-03-14T07:53:35;97092.03;;;-2.55;75.47
68141;BME280;54941;52.220;104.306;2023-03-14T07:56:02;97098.91;;;-2.57;76.45
68141;BME280;54941;52.220;104.306;2023-03-14T07:58:28;97094.75;;;-2.58;77.05
68141;BME280;54941;52.220;104.306;2023-03-14T08:00:55;97097.34;;;-2.47;76.33
68141;BME280;54941;52.220;104.306;2023-03-14T08:03:21;97089.75;;;-2.34;75.74
68141;BME280;54941;52.220;104.306;2023-03-14T08:05:50;97090.16;;;-2.64;73.87
68141;BME280;54941;52.220;104.306;2023-03-14T08:08:16;97094.31;;;-2.75;74.27
68141;BME280;54941;52.220;104.306;2023-03-14T08:10:43;97090.69;;;-2.24;73.05
68141;BME280;54941;52.220;104.306;2023-03-14T08:13:09;97095.31;;;-2.41;72.40
68141;BME280;54941;52.220;104.306;2023-03-14T08:15:39;97086.06;;;-2.54;72.00
68141;BME280;54941;52.220;104.306;2023-03-14T08:18:05;97091.94;;;-2.53;71.31
68141;BME280;54941;52.220;104.306;2023-03-14T08:20:32;97093.63;;;-1.71;68.86
68141;BME280;54941;52.220;104.306;2023-03-14T08:23:03;97087.50;;;-1.45;67.81
68141;BME280;54941;52.220;104.306;2023-03-14T08:25:29;97093.63;;;-1.71;66.41
68141;BME280;54941;52.220;104.306;2023-03-14T08:27:56;97082.69;;;-1.04;64.27
68141;BME280;54941;52.220;104.306;2023-03-14T08:30:25;97084.03;;;-1.22;63.35
68141;BME280;54941;52.220;104.306;2023-03-14T08:32:51;97081.47;;;-1.66;63.05
68141;BME280;54941;52.220;104.306;2023-03-14T08:35:18;97088.44;;;-1.13;61.01
68141;BME280;54941;52.220;104.306;2023-03-14T08:37:44;97083.41;;;-1.70;60.87
68141;BME280;54941;52.220;104.306;2023-03-14T08:40:13;97082.06;;;-1.63;61.69
68141;BME280;54941;52.220;104.306;2023-03-14T08:42:40;97081.22;;;-1.74;61.93
68141;BME280;54941;52.220;104.306;2023-03-14T08:45:08;97083.56;;;-1.49;62.00
68141;BME280;54941;52.220;104.306;2023-03-14T08:47:35;97076.88;;;-1.61;62.02
68141;BME280;54941;52.220;104.306;2023-03-14T08:50:02;97084.47;;;-1.50;61.31
68141;BME280;54941;52.220;104.306;2023-03-14T08:52:28;97082.88;;;-1.97;61.96
68141;BME280;54941;52.220;104.306;2023-03-14T08:54:54;97080.56;;;-1.54;61.70
68141;BME280;54941;52.220;104.306;2023-03-14T08:57:22;97083.06;;;-1.65;62.65
68141;BME280;54941;52.220;104.306;2023-03-14T08:59:51;97080.09;;;-2.05;63.07
68141;BME280;54941;52.220;104.306;2023-03-14T09:02:17;97078.22;;;-2.14;63.67
68141;BME280;54941;52.220;104.306;2023-03-14T09:04:43;97086.91;;;-1.94;63.58
68141;BME280;54941;52.220;104.306;2023-03-14T09:07:10;97079.63;;;-1.64;62.89
68141;BME280;54941;52.220;104.306;2023-03-14T09:09:36;97080.78;;;-1.68;61.80
68141;BME280;54941;52.220;104.306;2023-03-14T09:12:03;97085.34;;;-1.73;62.70
68141;BME280;54941;52.220;104.306;2023-03-14T09:14:31;97074.72;;;-1.55;62.67
68141;BME280;54941;52.220;104.306;2023-03-14T09:16:58;97080.81;;;-1.92;62.16
68141;BME280;54941;52.220;104.306;2023-03-14T09:19:24;97077.94;;;-1.64;61.41
68141;BME280;54941;52.220;104.306;2023-03-14T09:21:50;97069.72;;;-1.89;62.60
68141;BME280;54941;52.220;104.306;2023-03-14T09:24:18;97065.69;;;-2.27;62.52
68141;BME280;54941;52.220;104.306;2023-03-14T09:26:44;97071.09;;;-2.20;61.89
68141;BME280;54941;52.220;104.306;2023-03-14T09:29:11;97072.06;;;-2.34;62.76
68141;BME280;54941;52.220;104.306;2023-03-14T09:31:39;97069.94;;;-1.92;63.18
68141;BME280;54941;52.220;104.306;2023-03-14T09:34:05;97068.56;;;-2.20;62.74
68141;BME280;54941;52.220;104.306;2023-03-14T09:36:33;97062.72;;;-1.86;61.27
68141;BME280;54941;52.220;104.306;2023-03-14T09:38:59;97067.91;;;-1.76;60.27
68141;BME280;54941;52.220;104.306;2023-03-14T09:41:28;97070.69;;;-2.38;62.51
68141;BME280;54941;52.220;104.306;2023-03-14T09:44:02;97070.91;;;-2.41;62.38
68141;BME280;54941;52.220;104.306;2023-03-14T09:46:29;97065.63;;;-2.38;62.78
68141;BME280;54941;52.220;104.306;2023-03-14T09:48:59;97072.13;;;-2.23;62.42
68141;BME280;54941;52.220;104.306;2023-03-14T09:51:26;97066.59;;;-2.28;62.62
68141;BME280;54941;52.220;104.306;2023-03-14T09:53:53;97066.81;;;-2.31;61.94
68141;BME280;54941;52.220;104.306;2023-03-14T09:56:21;97068.03;;;-2.13;61.62
68141;BME280;54941;52.220;104.306;2023-03-14T09:58:51;97069.75;;;-2.61;62.01
68141;BME280;54941;52.220;104.306;2023-03-14T10:01:23;97077.63;;;-2.65;62.30
68141;BME280;54941;52.220;104.306;2023-03-14T10:03:53;97072.56;;;-2.53;62.90
68141;BME280;54941;52.220;104.306;2023-03-14T10:06:23;97068.03;;;-2.36;62.34
68141;BME280;54941;52.220;104.306;2023-03-14T10:08:52;97072.88;;;-2.33;62.04
68141;BME280;54941;52.220;104.306;2023-03-14T10:11:21;97072.28;;;-2.37;61.86
68141;BME280;54941;52.220;104.306;2023-03-14T10:13:49;97073.78;;;-2.58;62.75
68141;BME280;54941;52.220;104.306;2023-03-14T10:16:19;97067.50;;;-2.53;61.34
68141;BME280;54941;52.220;104.306;2023-03-14T10:19:01;97066.94;;;-2.69;62.17
68141;BME280;54941;52.220;104.306;2023-03-14T10:21:30;97064.44;;;-2.69;62.78
68141;BME280;54941;52.220;104.306;2023-03-14T10:24:20;97068.28;;;-2.76;62.66
68141;BME280;54941;52.220;104.306;2023-03-14T10:26:52;97067.59;;;-2.78;63.16
68141;BME280;54941;52.220;104.306;2023-03-14T10:29:19;97071.72;;;-2.77;63.25
68141;BME280;54941;52.220;104.306;2023-03-14T10:31:48;97076.97;;;-2.80;62.76
68141;BME280;54941;52.220;104.306;2023-03-14T10:34:17;97070.88;;;-3.01;62.86
68141;BME280;54941;52.220;104.306;2023-03-14T10:36:52;97070.28;;;-3.05;63.36
68141;BME280;54941;52.220;104.306;2023-03-14T10:39:28;97069.47;;;-3.18;64.06
68141;BME280;54941;52.220;104.306;2023-03-14T10:42:03;97076.44;;;-3.21;64.25
68141;BME280;54941;52.220;104.306;2023-03-14T10:44:31;97080.00;;;-3.36;64.61
68141;BME280;54941;52.220;104.306;2023-03-14T10:47:00;97079.19;;;-3.37;65.26
68141;BME280;54941;52.220;104.306;2023-03-14T10:49:29;97075.97;;;-3.39;65.21
68141;BME280;54941;52.220;104.306;2023-03-14T10:52:01;97083.81;;;-3.56;66.03
68141;BME280;54941;52.220;104.306;2023-03-14T10:54:30;97078.28;;;-3.61;67.13
68141;BME280;54941;52.220;104.306;2023-03-14T10:56:59;97084.63;;;-3.68;66.62
68141;BME280;54941;52.220;104.306;2023-03-14T10:59:27;97091.03;;;-3.77;67.34
68141;BME280;54941;52.220;104.306;2023-03-14T11:01:58;97089.44;;;-3.90;67.14
68141;BME280;54941;52.220;104.306;2023-03-14T11:04:40;97088.72;;;-3.92;67.69
68141;BME280;54941;52.220;104.306;2023-03-14T11:07:15;97100.72;;;-3.83;66.74
68141;BME280;54941;52.220;104.306;2023-03-14T11:09:49;97090.59;;;-4.09;67.85
68141;BME280;54941;52.220;104.306;2023-03-14T11:12:34;97092.84;;;-4.58;69.04
68141;BME280;54941;52.220;104.306;2023-03-14T11:15:08;97091.88;;;-4.55;69.59
68141;BME280;54941;52.220;104.306;2023-03-14T11:17:46;97095.75;;;-4.64;69.78
68141;BME280;54941;52.220;104.306;2023-03-14T11:20:32;97089.97;;;-4.93;70.43
68141;BME280;54941;52.220;104.306;2023-03-14T11:23:09;97102.78;;;-4.83;69.99
68141;BME280;54941;52.220;104.306;2023-03-14T11:25:43;97096.31;;;-4.87;70.76
68141;BME280;54941;52.220;104.306;2023-03-14T11:28:18;97093.72;;;-4.85;71.06
68141;BME280;54941;52.220;104.306;2023-03-14T11:30:51;97097.41;;;-4.91;69.87
68141;BME280;54941;52.220;104.306;2023-03-14T11:33:21;97098.41;;;-5.08;70.76
68141;BME280;54941;52.220;104.306;2023-03-14T11:35:55;97093.28;;;-5.20;70.58
68141;BME280;54941;52.220;104.306;2023-03-14T11:38:33;97093.56;;;-5.39;71.19
68141;BME280;54941;52.220;104.306;2023-03-14T11:41:08;97091.78;;;-5.51;71.57
68141;BME280;54941;52.220;104.306;2023-03-14T11:43:37;97097.88;;;-5.41;71.54
68141;BME280;54941;52.220;104.306;2023-03-14T11:46:09;97096.06;;;-5.39;72.41
68141;BME280;54941;52.220;104.306;2023-03-14T11:48:43;97100.38;;;-5.55;73.56
68141;BME280;54941;52.220;104.306;2023-03-14T11:51:16;97106.19;;;-5.69;72.99
68141;BME280;54941;52.220;104.306;2023-03-14T11:53:57;97107.13;;;-5.85;73.76
68141;BME280;54941;52.220;104.306;2023-03-14T11:56:29;97105.72;;;-5.75;73.58
68141;BME280;54941;52.220;104.306;2023-03-14T11:59:01;97109.59;;;-5.70;73.52
68141;BME280;54941;52.220;104.306;2023-03-14T12:01:36;97114.75;;;-6.01;74.18
68141;BME280;54941;52.220;104.306;2023-03-14T12:04:16;97109.84;;;-5.88;74.83
68141;BME280;54941;52.220;104.306;2023-03-14T12:06:49;97116.00;;;-5.94;75.23
68141;BME280;54941;52.220;104.306;2023-03-14T12:09:18;97110.34;;;-5.83;74.74
68141;BME280;54941;52.220;104.306;2023-03-14T12:11:49;97108.66;;;-5.83;74.47
68141;BME280;54941;52.220;104.306;2023-03-14T12:14:22;97117.88;;;-5.83;75.08
68141;BME280;54941;52.220;104.306;2023-03-14T12:16:53;97112.53;;;-5.77;74.82
68141;BME280;54941;52.220;104.306;2023-03-14T12:19:32;97119.81;;;-5.73;74.93
68141;BME280;54941;52.220;104.306;2023-03-14T12:22:06;97117.72;;;-5.95;75.46
68141;BME280;54941;52.220;104.306;2023-03-14T12:24:37;97112.22;;;-6.01;75.87
68141;BME280;54941;52.220;104.306;2023-03-14T12:27:05;97116.75;;;-5.78;75.30
68141;BME280;54941;52.220;104.306;2023-03-14T12:29:32;97115.00;;;-5.62;74.95
68141;BME280;54941;52.220;104.306;2023-03-14T12:32:20;97124.56;;;-5.54;75.16
68141;BME280;54941;52.220;104.306;2023-03-14T12:34:48;97115.91;;;-5.49;74.16
68141;BME280;54941;52.220;104.306;2023-03-14T12:37:23;97119.03;;;-5.59;74.13
68141;BME280;54941;52.220;104.306;2023-03-14T12:40:10;97113.28;;;-5.61;75.08
68141;BME280;54941;52.220;104.306;2023-03-14T12:42:51;97107.28;;;-5.59;75.52
68141;BME280;54941;52.220;104.306;2023-03-14T12:45:25;97105.53;;;-5.28;74.59
68141;BME280;54941;52.220;104.306;2023-03-14T12:48:14;97109.09;;;-5.18;74.17